Time;durP1;ratioP1;P1;durP2;ratioP2;P2;SDS_P1;SDS_P2;PMS_P1;PMS_P2;Temp;Humidity;BMP_temperature;BMP_pressure;BME280_temperature;BME280_humidity;BME280_pressure;Samples;Min_cycle;Max_cycle;Signal;HPM_P1;HPM_P2
2022/07/03 00:01:38;;;;;;;12.27;2.50;;;;;;;;;;6136479;23;20017;-44
2022/07/03 00:04:04;;;;;;;8.60;2.95;;;;;;;;;;6157244;23;20087;-44
2022/07/03 00:06:32;;;;;;;7.63;2.55;;;;;;;;;;6132950;23;20073;-45
2022/07/03 00:08:58;;;;;;;6.45;3.03;;;;;;;;;;6171644;23;20029;-44
2022/07/03 00:11:25;;;;;;;5.30;2.67;;;;;;;;;;6162712;23;20467;-44
2022/07/03 00:13:53;;;;;;;11.10;3.40;;;;;;;;;;6165024;23;20617;-44
2022/07/03 00:16:20;;;;;;;12.82;3.60;;;;;;;;;;6163104;23;20046;-44
2022/07/03 00:18:46;;;;;;;12.98;4.45;;;;;;;;;;6164650;23;20013;-44
2022/07/03 00:21:16;;;;;;;8.27;3.28;;;;;;;;;;6170009;23;20017;-43
2022/07/03 00:23:45;;;;;;;6.35;1.88;;;;;;;;;;6160542;23;20159;-44
2022/07/03 00:26:12;;;;;;;8.05;2.40;;;;;;;;;;6175047;23;20024;-45
2022/07/03 00:28:38;;;;;;;8.43;2.15;;;;;;;;;;6163205;23;20017;-44
2022/07/03 00:31:08;;;;;;;10.25;2.63;;;;;;;;;;6148410;23;20020;-44
2022/07/03 00:33:35;;;;;;;6.30;1.88;;;;;;;;;;6160017;23;20023;-45
2022/07/03 00:36:02;;;;;;;7.75;2.17;;;;;;;;;;6158120;23;20044;-42
2022/07/03 00:38:29;;;;;;;9.77;2.13;;;;;;;;;;6166009;23;20044;-43
2022/07/03 00:40:56;;;;;;;3.65;2.00;;;;;;;;;;6162525;23;20518;-43
2022/07/03 00:43:22;;;;;;;5.18;2.33;;;;;;;;;;6164575;23;20013;-45
2022/07/03 00:45:50;;;;;;;9.73;2.55;;;;;;;;;;6157699;23;20080;-43
2022/07/03 00:48:18;;;;;;;7.45;2.53;;;;;;;;;;6169574;23;20016;-43
2022/07/03 00:50:46;;;;;;;4.38;1.95;;;;;;;;;;6144693;23;20476;-46
2022/07/03 00:53:13;;;;;;;7.45;2.38;;;;;;;;;;6167722;23;20017;-44
2022/07/03 00:55:41;;;;;;;7.45;2.40;;;;;;;;;;6156857;23;20013;-45
2022/07/03 00:58:08;;;;;;;8.77;2.20;;;;;;;;;;6158186;23;20076;-46
2022/07/03 01:00:35;;;;;;;8.35;2.97;;;;;;;;;;6166361;23;20021;-43
2022/07/03 01:03:05;;;;;;;7.55;2.30;;;;;;;;;;6153408;23;20017;-44
2022/07/03 01:05:36;;;;;;;6.30;2.50;;;;;;;;;;6159568;23;20018;-45
2022/07/03 01:08:08;;;;;;;7.18;2.22;;;;;;;;;;6157304;23;20052;-44
2022/07/03 01:10:38;;;;;;;10.85;2.80;;;;;;;;;;6172985;23;20013;-45
2022/07/03 01:13:08;;;;;;;11.20;2.53;;;;;;;;;;6174007;23;20460;-43
2022/07/03 01:15:42;;;;;;;7.75;2.10;;;;;;;;;;6169856;23;20024;-47
2022/07/03 01:18:24;;;;;;;9.23;2.70;;;;;;;;;;6175274;23;20044;-44
2022/07/03 01:20:54;;;;;;;6.13;2.55;;;;;;;;;;6142106;23;20436;-45
2022/07/03 01:23:25;;;;;;;10.95;2.53;;;;;;;;;;6173791;23;20519;-45
2022/07/03 01:25:53;;;;;;;6.22;2.17;;;;;;;;;;6175296;23;20478;-45
2022/07/03 01:28:23;;;;;;;6.40;2.22;;;;;;;;;;6117280;23;20025;-45
2022/07/03 01:30:51;;;;;;;5.50;2.10;;;;;;;;;;6172463;23;20027;-45
2022/07/03 01:33:20;;;;;;;7.78;2.00;;;;;;;;;;6162213;23;20021;-44
2022/07/03 01:35:52;;;;;;;4.90;2.30;;;;;;;;;;6176514;23;20308;-45
2022/07/03 01:38:21;;;;;;;8.63;2.65;;;;;;;;;;6175105;23;20021;-47
2022/07/03 01:40:50;;;;;;;5.72;2.20;;;;;;;;;;6165650;23;20016;-46
2022/07/03 01:43:19;;;;;;;8.98;2.33;;;;;;;;;;6167532;23;20032;-44
2022/07/03 01:45:46;;;;;;;;;;;;;;;;;;6183117;23;20017;-43
2022/07/03 01:48:12;;;;;;;6.78;2.60;;;;;;;;;;6159972;23;19979;-45
2022/07/03 01:50:39;;;;;;;6.28;3.17;;;;;;;;;;6175327;23;20221;-48
2022/07/03 01:53:08;;;;;;;5.80;2.33;;;;;;;;;;6160619;23;20040;-45
2022/07/03 01:55:35;;;;;;;6.95;2.60;;;;;;;;;;6174134;23;20017;-43
2022/07/03 01:58:01;;;;;;;7.82;2.92;;;;;;;;;;6164782;23;20016;-45
2022/07/03 02:00:30;;;;;;;6.78;2.22;;;;;;;;;;6162207;23;20044;-45
2022/07/03 02:02:59;;;;;;;5.70;2.42;;;;;;;;;;6170658;23;20467;-44
2022/07/03 02:05:31;;;;;;;9.23;2.72;;;;;;;;;;6168367;23;20044;-43
2022/07/03 02:08:03;;;;;;;5.38;2.40;;;;;;;;;;6170705;23;20013;-43
2022/07/03 02:10:34;;;;;;;5.20;2.67;;;;;;;;;;6167231;23;20021;-44
2022/07/03 02:13:02;;;;;;;12.45;2.75;;;;;;;;;;6168649;23;20020;-45
2022/07/03 02:15:31;;;;;;;8.63;2.65;;;;;;;;;;6172197;23;20013;-44
2022/07/03 02:17:59;;;;;;;9.60;2.58;;;;;;;;;;6159273;23;20083;-43
2022/07/03 02:20:26;;;;;;;4.68;2.17;;;;;;;;;;6166752;23;20021;-45
2022/07/03 02:22:57;;;;;;;6.35;2.38;;;;;;;;;;6130371;23;20344;-46
2022/07/03 02:25:24;;;;;;;4.75;2.95;;;;;;;;;;6171726;23;20420;-43
2022/07/03 02:27:51;;;;;;;8.40;2.38;;;;;;;;;;6153466;23;20016;-45
2022/07/03 02:30:19;;;;;;;7.18;2.78;;;;;;;;;;6170058;23;20020;-46
2022/07/03 02:32:49;;;;;;;7.82;2.42;;;;;;;;;;6162249;23;20079;-45
2022/07/03 02:35:18;;;;;;;8.30;2.35;;;;;;;;;;6161209;23;20695;-44
2022/07/03 02:37:46;;;;;;;9.25;2.70;;;;;;;;;;6170768;23;20021;-45
2022/07/03 02:40:18;;;;;;;8.82;2.47;;;;;;;;;;6174233;23;20014;-44
2022/07/03 02:42:48;;;;;;;5.97;2.33;;;;;;;;;;6158589;23;20443;-45
2022/07/03 02:45:14;;;;;;;6.72;2.78;;;;;;;;;;6173395;23;20018;-44
2022/07/03 02:47:46;;;;;;;3.95;2.45;;;;;;;;;;6157061;23;20016;-43
2022/07/03 02:50:17;;;;;;;6.07;2.50;;;;;;;;;;6116587;23;20026;-57
2022/07/03 02:52:48;;;;;;;4.70;2.20;;;;;;;;;;6018414;23;20014;-56
2022/07/03 02:55:26;;;;;;;5.15;2.65;;;;;;;;;;6103403;23;20013;-55
2022/07/03 02:58:11;;;;;;;5.80;2.57;;;;;;;;;;6113558;23;20025;-56
2022/07/03 03:00:39;;;;;;;5.68;2.83;;;;;;;;;;6107295;23;20022;-52
2022/07/03 03:03:06;;;;;;;10.98;3.15;;;;;;;;;;6106442;23;20021;-55
2022/07/03 03:05:38;;;;;;;6.50;3.70;;;;;;;;;;6092914;23;20081;-57
2022/07/03 03:08:13;;;;;;;8.20;2.75;;;;;;;;;;6110214;23;20015;-56
2022/07/03 03:10:40;;;;;;;5.95;2.60;;;;;;;;;;6108525;23;20901;-55
2022/07/03 03:13:07;;;;;;;7.45;2.50;;;;;;;;;;6094227;23;20421;-55
2022/07/03 03:15:35;;;;;;;13.75;3.53;;;;;;;;;;6105397;23;20045;-57
2022/07/03 03:18:02;;;;;;;9.65;2.95;;;;;;;;;;6115892;23;20041;-57
2022/07/03 03:20:31;;;;;;;4.53;2.47;;;;;;;;;;6104110;23;20171;-56
2022/07/03 03:23:09;;;;;;;7.85;2.60;;;;;;;;;;6119453;23;20018;-54
2022/07/03 03:25:35;;;;;;;6.35;2.92;;;;;;;;;;6099369;23;20544;-55
2022/07/03 03:28:02;;;;;;;12.90;2.85;;;;;;;;;;6111283;23;20034;-55
2022/07/03 03:30:29;;;;;;;7.38;3.15;;;;;;;;;;6106151;23;20088;-56
2022/07/03 03:32:55;;;;;;;7.70;2.83;;;;;;;;;;6107757;23;20127;-54
2022/07/03 03:35:22;;;;;;;8.55;2.75;;;;;;;;;;6105305;23;20021;-55
2022/07/03 03:37:49;;;;;;;9.75;3.13;;;;;;;;;;6110220;23;20890;-56
2022/07/03 03:40:17;;;;;;;8.68;3.15;;;;;;;;;;6088053;23;20034;-57
2022/07/03 03:42:44;;;;;;;10.90;3.22;;;;;;;;;;6115604;23;20092;-57
2022/07/03 03:45:11;;;;;;;7.55;2.63;;;;;;;;;;6116616;23;20014;-55
2022/07/03 03:47:37;;;;;;;11.02;3.70;;;;;;;;;;6105272;23;20058;-56
2022/07/03 03:50:04;;;;;;;6.55;2.83;;;;;;;;;;6107166;23;20053;-56
2022/07/03 03:52:31;;;;;;;12.00;3.30;;;;;;;;;;6130618;23;20014;-55
2022/07/03 03:54:57;;;;;;;6.28;2.85;;;;;;;;;;6144654;23;20021;-56
2022/07/03 03:57:26;;;;;;;12.25;3.50;;;;;;;;;;6138714;23;20014;-55
2022/07/03 03:59:53;;;;;;;7.88;3.10;;;;;;;;;;6139206;23;20440;-55
2022/07/03 04:02:19;;;;;;;6.78;3.13;;;;;;;;;;6118593;23;20014;-55
2022/07/03 04:04:46;;;;;;;6.22;3.33;;;;;;;;;;6140860;23;20056;-57
2022/07/03 04:07:12;;;;;;;13.70;3.20;;;;;;;;;;6132243;23;20017;-55
2022/07/03 04:09:39;;;;;;;9.90;3.05;;;;;;;;;;6138499;23;20021;-55
2022/07/03 04:12:06;;;;;;;4.40;2.90;;;;;;;;;;6129037;23;20021;-56
2022/07/03 04:14:33;;;;;;;7.13;3.75;;;;;;;;;;6145846;23;20013;-57
2022/07/03 04:17:00;;;;;;;8.02;2.40;;;;;;;;;;6140953;23;20077;-55
2022/07/03 04:19:26;;;;;;;8.95;3.00;;;;;;;;;;6138365;23;20021;-56
2022/07/03 04:21:53;;;;;;;11.93;3.65;;;;;;;;;;6139723;23;20134;-57
2022/07/03 04:24:20;;;;;;;9.20;3.63;;;;;;;;;;6142646;23;20013;-54
2022/07/03 04:26:46;;;;;;;9.98;3.25;;;;;;;;;;6139922;23;20049;-56
2022/07/03 04:29:13;;;;;;;7.18;3.50;;;;;;;;;;6136867;23;20023;-55
2022/07/03 04:31:41;;;;;;;10.95;3.50;;;;;;;;;;6133684;23;20014;-55
2022/07/03 04:34:07;;;;;;;8.55;2.65;;;;;;;;;;6138874;23;20367;-57
2022/07/03 04:36:34;;;;;;;10.40;2.90;;;;;;;;;;6144626;23;20013;-58
2022/07/03 04:39:00;;;;;;;7.07;2.42;;;;;;;;;;6136154;23;20048;-58
2022/07/03 04:41:27;;;;;;;5.53;2.85;;;;;;;;;;6138543;23;20219;-57
2022/07/03 04:43:53;;;;;;;6.55;3.10;;;;;;;;;;6135881;23;20017;-55
2022/07/03 04:46:21;;;;;;;7.95;2.55;;;;;;;;;;6144841;23;20021;-57
2022/07/03 04:48:49;;;;;;;5.82;2.75;;;;;;;;;;6142032;23;20028;-57
2022/07/03 04:51:15;;;;;;;5.07;2.67;;;;;;;;;;6138090;23;20028;-56
2022/07/03 04:53:42;;;;;;;10.60;3.35;;;;;;;;;;6135700;23;20025;-57
2022/07/03 04:56:08;;;;;;;5.30;2.55;;;;;;;;;;6141122;23;20016;-54
2022/07/03 04:58:35;;;;;;;6.00;2.88;;;;;;;;;;6139345;23;20018;-56
2022/07/03 05:01:01;;;;;;;6.75;3.28;;;;;;;;;;6144389;23;20443;-56
2022/07/03 05:03:28;;;;;;;12.75;3.47;;;;;;;;;;6142780;23;20014;-54
2022/07/03 05:05:56;;;;;;;7.65;3.08;;;;;;;;;;6129994;23;20044;-56
2022/07/03 05:08:23;;;;;;;7.18;2.90;;;;;;;;;;6143718;23;20017;-55
2022/07/03 05:10:50;;;;;;;12.05;2.83;;;;;;;;;;6130838;23;20412;-55
2022/07/03 05:13:16;;;;;;;11.57;3.08;;;;;;;;;;6145647;23;20080;-57
2022/07/03 05:15:43;;;;;;;8.63;2.97;;;;;;;;;;6145290;23;20069;-55
2022/07/03 05:18:09;;;;;;;9.88;3.15;;;;;;;;;;6136916;23;20040;-56
2022/07/03 05:20:36;;;;;;;12.95;3.58;;;;;;;;;;6136380;23;20024;-57
2022/07/03 05:23:04;;;;;;;6.82;2.10;;;;;;;;;;6139152;23;20017;-56
2022/07/03 05:25:31;;;;;;;7.63;3.30;;;;;;;;;;6137868;23;20025;-56
2022/07/03 05:27:58;;;;;;;7.93;3.28;;;;;;;;;;6136305;23;20021;-57
2022/07/03 05:30:25;;;;;;;8.23;2.92;;;;;;;;;;6113972;23;20018;-58
2022/07/03 05:32:52;;;;;;;8.20;3.25;;;;;;;;;;6136183;23;20452;-56
2022/07/03 05:35:21;;;;;;;6.38;2.75;;;;;;;;;;6138374;23;20013;-55
2022/07/03 05:37:48;;;;;;;;;;;;;;;;;;6131973;23;20337;-55
2022/07/03 05:40:17;;;;;;;6.82;2.63;;;;;;;;;;6135080;23;19916;-57
2022/07/03 05:42:43;;;;;;;13.63;3.15;;;;;;;;;;6140159;23;20017;-56
2022/07/03 05:45:10;;;;;;;9.10;3.33;;;;;;;;;;6135209;23;20017;-54
2022/07/03 05:47:37;;;;;;;6.60;2.55;;;;;;;;;;6134608;23;20338;-57
2022/07/03 05:50:04;;;;;;;8.07;2.40;;;;;;;;;;6136632;23;20037;-56
2022/07/03 05:52:30;;;;;;;7.03;3.28;;;;;;;;;;6139100;23;20041;-56
2022/07/03 05:54:58;;;;;;;6.47;2.97;;;;;;;;;;6132948;23;20017;-56
2022/07/03 05:57:26;;;;;;;5.75;3.08;;;;;;;;;;6138365;23;20013;-54
2022/07/03 05:59:52;;;;;;;13.38;3.40;;;;;;;;;;6138560;23;20380;-58
2022/07/03 06:02:19;;;;;;;9.57;3.35;;;;;;;;;;6138418;23;20482;-56
2022/07/03 06:04:45;;;;;;;4.65;2.58;;;;;;;;;;6143431;23;20064;-57
2022/07/03 06:07:11;;;;;;;7.60;3.35;;;;;;;;;;6134036;23;20329;-57
2022/07/03 06:09:38;;;;;;;8.18;2.50;;;;;;;;;;6144066;23;20017;-57
2022/07/03 06:12:05;;;;;;;9.95;2.67;;;;;;;;;;6137176;23;20029;-56
2022/07/03 06:14:33;;;;;;;9.07;2.75;;;;;;;;;;6126462;23;20022;-56
2022/07/03 06:16:59;;;;;;;7.18;3.15;;;;;;;;;;6146408;23;20017;-56
2022/07/03 06:19:26;;;;;;;7.13;2.70;;;;;;;;;;6141049;23;20081;-57
2022/07/03 06:21:52;;;;;;;9.73;2.80;;;;;;;;;;6131978;23;20352;-57
2022/07/03 06:24:19;;;;;;;5.65;3.30;;;;;;;;;;6135442;23;20017;-55
2022/07/03 06:26:45;;;;;;;7.97;2.65;;;;;;;;;;6135325;23;20021;-57
2022/07/03 06:29:11;;;;;;;7.40;2.63;;;;;;;;;;6137668;23;20014;-54
2022/07/03 06:31:39;;;;;;;5.22;2.60;;;;;;;;;;6135395;23;20021;-57
2022/07/03 06:34:06;;;;;;;7.82;2.45;;;;;;;;;;6134350;23;20026;-58
2022/07/03 06:36:32;;;;;;;5.35;2.85;;;;;;;;;;6107979;23;20463;-55
2022/07/03 06:38:59;;;;;;;12.25;3.60;;;;;;;;;;6140116;23;20014;-56
2022/07/03 06:41:25;;;;;;;7.13;3.00;;;;;;;;;;6140203;23;20013;-58
2022/07/03 06:43:53;;;;;;;11.23;3.30;;;;;;;;;;6133925;23;20429;-54
2022/07/03 06:46:20;;;;;;;10.02;2.80;;;;;;;;;;6143110;23;20013;-54
2022/07/03 06:48:48;;;;;;;16.00;3.83;;;;;;;;;;6135415;23;20051;-56
2022/07/03 06:51:14;;;;;;;10.82;4.22;;;;;;;;;;6137931;23;20017;-56
2022/07/03 06:53:40;;;;;;;6.47;3.03;;;;;;;;;;6133993;23;20013;-55
2022/07/03 06:56:07;;;;;;;5.63;3.60;;;;;;;;;;6141530;23;20014;-57
2022/07/03 06:58:33;;;;;;;7.60;3.72;;;;;;;;;;6103154;23;20014;-54
2022/07/03 07:01:00;;;;;;;6.88;4.25;;;;;;;;;;6132607;23;20733;-55
2022/07/03 07:03:26;;;;;;;8.68;3.47;;;;;;;;;;6137383;23;20076;-56
2022/07/03 07:05:54;;;;;;;8.18;3.58;;;;;;;;;;6131784;23;20014;-57
2022/07/03 07:08:21;;;;;;;8.52;3.80;;;;;;;;;;6143575;23;20013;-54
2022/07/03 07:10:47;;;;;;;5.93;3.53;;;;;;;;;;6136065;23;20025;-58
2022/07/03 07:13:14;;;;;;;12.80;4.78;;;;;;;;;;6138088;23;20045;-54
2022/07/03 07:15:40;;;;;;;8.85;4.80;;;;;;;;;;6136586;23;20014;-58
2022/07/03 07:18:07;;;;;;;5.68;4.05;;;;;;;;;;6128885;23;20514;-56
2022/07/03 07:20:33;;;;;;;6.72;4.72;;;;;;;;;;6130044;23;20017;-57
2022/07/03 07:23:01;;;;;;;9.40;4.82;;;;;;;;;;6129894;23;20017;-55
2022/07/03 07:25:27;;;;;;;8.98;4.20;;;;;;;;;;6139794;23;20014;-54
2022/07/03 07:27:54;;;;;;;11.93;4.03;;;;;;;;;;6128785;23;20576;-56
2022/07/03 07:30:21;;;;;;;15.15;4.93;;;;;;;;;;6146831;23;20025;-57
2022/07/03 07:32:47;;;;;;;10.23;4.40;;;;;;;;;;6129257;23;20017;-58
2022/07/03 07:35:13;;;;;;;7.97;4.68;;;;;;;;;;6131154;23;20013;-57
2022/07/03 07:37:40;;;;;;;13.13;4.68;;;;;;;;;;6113843;23;20281;-55
2022/07/03 07:40:09;;;;;;;8.70;4.20;;;;;;;;;;6114175;23;20021;-55
2022/07/03 07:42:35;;;;;;;13.30;4.20;;;;;;;;;;6125838;23;20025;-56
2022/07/03 07:45:02;;;;;;;10.40;3.90;;;;;;;;;;6144398;23;20018;-55
2022/07/03 07:47:28;;;;;;;9.18;4.20;;;;;;;;;;6121143;23;20045;-57
2022/07/03 07:49:55;;;;;;;7.68;3.40;;;;;;;;;;6143537;23;20024;-57
2022/07/03 07:52:23;;;;;;;6.07;4.25;;;;;;;;;;6122107;23;20075;-57
2022/07/03 07:54:50;;;;;;;6.13;3.40;;;;;;;;;;6137459;23;20018;-57
2022/07/03 07:57:19;;;;;;;13.55;3.90;;;;;;;;;;6124143;23;20075;-55
2022/07/03 07:59:46;;;;;;;6.50;3.45;;;;;;;;;;6128779;23;20017;-56
2022/07/03 08:07:41;;;;;;;7.78;3.83;;;;;;;;;;6132678;23;20114;-57
2022/07/03 08:10:08;;;;;;;10.65;3.85;;;;;;;;;;6110989;23;20025;-57
2022/07/03 08:12:35;;;;;;;7.18;3.55;;;;;;;;;;6128525;23;20017;-58
2022/07/03 08:15:02;;;;;;;5.20;3.28;;;;;;;;;;6118263;23;20086;-56
2022/07/03 08:17:28;;;;;;;5.93;3.42;;;;;;;;;;6134966;23;20009;-57
2022/07/03 08:19:55;;;;;;;5.32;3.33;;;;;;;;;;6121145;23;20024;-58
2022/07/03 08:22:22;;;;;;;4.00;3.03;;;;;;;;;;6121706;23;20037;-57
2022/07/03 08:24:49;;;;;;;7.13;3.15;;;;;;;;;;6129296;23;20024;-57
2022/07/03 08:27:15;;;;;;;9.52;2.78;;;;;;;;;;6136883;23;20014;-58
2022/07/03 08:29:43;;;;;;;5.05;2.50;;;;;;;;;;6140951;23;20021;-58
2022/07/03 08:32:10;;;;;;;7.28;2.13;;;;;;;;;;6116904;23;20025;-56
2022/07/03 08:34:36;;;;;;;3.90;2.22;;;;;;;;;;6132534;23;20447;-57
2022/07/03 08:37:03;;;;;;;6.70;2.25;;;;;;;;;;6139325;23;20024;-58
2022/07/03 08:39:30;;;;;;;4.10;3.00;;;;;;;;;;6141061;23;20013;-56
2022/07/03 08:41:56;;;;;;;6.95;2.38;;;;;;;;;;6132486;23;20024;-58
2022/07/03 08:44:26;;;;;;;5.53;1.80;;;;;;;;;;6140820;23;20013;-56
2022/07/03 08:46:55;;;;;;;6.53;1.90;;;;;;;;;;6142806;23;20013;-57
2022/07/03 08:49:23;;;;;;;7.03;2.60;;;;;;;;;;6140237;23;20044;-57
2022/07/03 08:51:49;;;;;;;6.97;2.45;;;;;;;;;;6143553;23;20045;-57
2022/07/03 08:54:16;;;;;;;4.07;1.85;;;;;;;;;;6127763;23;20021;-58
2022/07/03 08:56:43;;;;;;;5.70;2.10;;;;;;;;;;6143068;23;20021;-58
2022/07/03 08:59:10;;;;;;;4.45;2.00;;;;;;;;;;6133009;23;20369;-58
2022/07/03 09:01:41;;;;;;;4.15;1.90;;;;;;;;;;6139732;23;20114;-57
2022/07/03 09:04:12;;;;;;;4.10;1.70;;;;;;;;;;6129276;23;20025;-57
2022/07/03 09:06:39;;;;;;;5.43;1.73;;;;;;;;;;6136329;23;20013;-57
2022/07/03 09:09:07;;;;;;;4.80;1.65;;;;;;;;;;6137735;23;20498;-59
2022/07/03 09:11:34;;;;;;;4.68;1.40;;;;;;;;;;6132584;23;20022;-58
2022/07/03 09:14:02;;;;;;;3.40;1.20;;;;;;;;;;6138226;23;20454;-58
2022/07/03 09:16:28;;;;;;;6.35;2.05;;;;;;;;;;6142793;23;20040;-58
2022/07/03 09:18:55;;;;;;;4.43;1.50;;;;;;;;;;6135004;23;20017;-57
2022/07/03 09:21:24;;;;;;;4.75;1.98;;;;;;;;;;6136252;23;20024;-58
2022/07/03 09:23:51;;;;;;;4.55;2.13;;;;;;;;;;6132271;23;20028;-58
2022/07/03 09:26:18;;;;;;;3.22;1.92;;;;;;;;;;6131083;23;20017;-58
2022/07/03 09:28:46;;;;;;;6.60;2.35;;;;;;;;;;6133163;23;20025;-59
2022/07/03 09:31:14;;;;;;;6.32;2.08;;;;;;;;;;6133712;23;20028;-58
2022/07/03 09:33:56;;;;;;;2.00;1.25;;;;;;;;;;6095346;23;20044;-58
2022/07/03 09:36:38;;;;;;;5.65;1.20;;;;;;;;;;6142988;23;20029;-58
2022/07/03 09:39:11;;;;;;;2.28;0.70;;;;;;;;;;6133189;23;20370;-58
2022/07/03 09:41:50;;;;;;;1.80;1.42;;;;;;;;;;6131287;23;20025;-58
2022/07/03 09:44:17;;;;;;;;;;;;;;;;;;6136791;23;20036;-58
2022/07/03 09:46:44;;;;;;;3.30;1.55;;;;;;;;;;6124666;23;19978;-58
2022/07/03 09:49:11;;;;;;;2.75;1.40;;;;;;;;;;6137784;23;20014;-58
2022/07/03 09:51:39;;;;;;;3.75;1.25;;;;;;;;;;6132354;23;20025;-59
2022/07/03 09:54:05;;;;;;;3.00;1.42;;;;;;;;;;6143723;23;20077;-58
2022/07/03 09:56:34;;;;;;;1.95;1.52;;;;;;;;;;6132052;23;20356;-59
2022/07/03 09:59:11;;;;;;;2.78;1.30;;;;;;;;;;6132811;23;20026;-58
2022/07/03 10:01:38;;;;;;;3.95;1.20;;;;;;;;;;6140528;23;20028;-59
2022/07/03 10:04:12;;;;;;;2.78;1.30;;;;;;;;;;6120029;23;20017;-58
2022/07/03 10:06:53;;;;;;;3.92;1.20;;;;;;;;;;6130384;23;20451;-58
2022/07/03 10:09:20;;;;;;;2.85;1.15;;;;;;;;;;6138217;23;20049;-59
2022/07/03 10:11:46;;;;;;;3.72;1.45;;;;;;;;;;6110893;23;20018;-59
2022/07/03 10:14:14;;;;;;;3.00;1.60;;;;;;;;;;6129872;23;20021;-59
2022/07/03 10:16:41;;;;;;;3.42;1.17;;;;;;;;;;6139257;23;20025;-59
2022/07/03 10:19:07;;;;;;;2.65;1.70;;;;;;;;;;6126487;23;20050;-58
2022/07/03 10:21:36;;;;;;;3.13;1.42;;;;;;;;;;6141400;23;20072;-58
2022/07/03 10:24:05;;;;;;;3.17;1.25;;;;;;;;;;6117980;23;20017;-58
2022/07/03 10:26:32;;;;;;;3.05;0.98;;;;;;;;;;6139181;23;20018;-59
2022/07/03 10:29:00;;;;;;;3.70;1.02;;;;;;;;;;6128059;23;20033;-58
2022/07/03 10:31:26;;;;;;;2.75;1.15;;;;;;;;;;6139159;23;20021;-58
2022/07/03 10:33:54;;;;;;;2.72;1.33;;;;;;;;;;6133399;23;20024;-58
2022/07/03 10:36:20;;;;;;;2.85;1.02;;;;;;;;;;6141804;23;20041;-58
2022/07/03 10:38:49;;;;;;;3.08;1.17;;;;;;;;;;6127750;23;20751;-58
2022/07/03 10:46:48;;;;;;;1.77;1.00;;;;;;;;;;6129180;23;20041;-58
2022/07/03 10:49:15;;;;;;;2.67;0.75;;;;;;;;;;6142904;23;20024;-58
2022/07/03 10:51:55;;;;;;;2.22;1.08;;;;;;;;;;6124987;23;20029;-58
2022/07/03 10:54:21;;;;;;;;;;;;;;;;;;6137225;23;20013;-58
2022/07/03 10:57:13;;;;;;;3.38;1.20;;;;;;;;;;6137662;23;19971;-58
2022/07/03 10:59:58;;;;;;;3.45;1.10;;;;;;;;;;6117018;23;20025;-58
2022/07/03 11:02:27;;;;;;;1.60;0.82;;;;;;;;;;6129100;23;20509;-57
2022/07/03 11:05:12;;;;;;;2.30;1.15;;;;;;;;;;6138156;23;20037;-57
2022/07/03 11:08:03;;;;;;;3.45;1.40;;;;;;;;;;6132039;23;20076;-58
2022/07/03 11:10:32;;;;;;;2.63;0.95;;;;;;;;;;6128724;23;20025;-58
2022/07/03 11:13:00;;;;;;;3.35;0.98;;;;;;;;;;6142386;23;20025;-58
2022/07/03 11:15:27;;;;;;;3.53;1.27;;;;;;;;;;6138703;23;20037;-58
2022/07/03 11:18:13;;;;;;;0.70;0.70;;;;;;;;;;6131411;23;20510;-58
2022/07/03 11:20:56;;;;;;;3.60;1.15;;;;;;;;;;6130223;23;20021;-58
2022/07/03 11:23:27;;;;;;;1.27;0.80;;;;;;;;;;6134781;23;20017;-57
2022/07/03 11:25:54;;;;;;;3.13;1.35;;;;;;;;;;6105760;23;20025;-58
2022/07/03 11:28:35;;;;;;;2.63;0.82;;;;;;;;;;6142661;23;20013;-58
2022/07/03 11:31:17;;;;;;;2.67;1.00;;;;;;;;;;6108381;23;20022;-58
2022/07/03 11:33:45;;;;;;;3.80;1.58;;;;;;;;;;6141354;23;20112;-58
2022/07/03 11:36:12;;;;;;;1.63;1.08;;;;;;;;;;6107264;23;20029;-57
2022/07/03 11:38:40;;;;;;;4.97;1.13;;;;;;;;;;6143849;23;20020;-58
2022/07/03 11:41:08;;;;;;;4.03;1.30;;;;;;;;;;6138232;23;20025;-58
2022/07/03 11:43:35;;;;;;;1.20;1.10;;;;;;;;;;6141625;23;20017;-57
2022/07/03 11:46:04;;;;;;;3.75;1.48;;;;;;;;;;6135578;23;20021;-57
2022/07/03 11:48:31;;;;;;;2.72;1.15;;;;;;;;;;6140394;23;20029;-59
2022/07/03 11:51:04;;;;;;;3.92;1.70;;;;;;;;;;6139647;23;20018;-58
2022/07/03 11:53:31;;;;;;;3.58;1.63;;;;;;;;;;6128165;23;20022;-58
2022/07/03 11:55:59;;;;;;;1.83;0.90;;;;;;;;;;6132679;23;20041;-58
2022/07/03 11:58:26;;;;;;;2.70;1.40;;;;;;;;;;6135175;23;20013;-58
2022/07/03 12:00:53;;;;;;;1.67;0.70;;;;;;;;;;6125424;23;20014;-58
2022/07/03 12:03:25;;;;;;;2.45;1.70;;;;;;;;;;6137640;23;20326;-58
2022/07/03 12:05:52;;;;;;;3.67;2.15;;;;;;;;;;6130546;23;20050;-58
2022/07/03 12:08:24;;;;;;;2.92;1.50;;;;;;;;;;6142947;23;20059;-56
2022/07/03 12:10:51;;;;;;;2.40;1.35;;;;;;;;;;6122400;23;20472;-58
2022/07/03 12:13:21;;;;;;;2.83;1.60;;;;;;;;;;6137832;23;20021;-58
2022/07/03 12:15:47;;;;;;;3.65;1.15;;;;;;;;;;6136586;23;20022;-58
2022/07/03 12:18:14;;;;;;;5.03;2.35;;;;;;;;;;6133091;23;20032;-58
2022/07/03 12:20:40;;;;;;;6.18;2.72;;;;;;;;;;6142703;23;20014;-58
2022/07/03 12:23:07;;;;;;;5.47;1.65;;;;;;;;;;6127025;23;20013;-58
2022/07/03 12:25:38;;;;;;;2.72;1.65;;;;;;;;;;6142953;23;20018;-59
2022/07/03 12:28:05;;;;;;;10.52;2.03;;;;;;;;;;6101095;23;20041;-57
2022/07/03 12:30:32;;;;;;;4.10;1.67;;;;;;;;;;6107927;23;20013;-58
2022/07/03 12:32:59;;;;;;;3.53;2.28;;;;;;;;;;6122776;23;20026;-59
2022/07/03 12:35:26;;;;;;;2.33;1.90;;;;;;;;;;6140974;23;20435;-58
2022/07/03 12:37:52;;;;;;;5.88;2.33;;;;;;;;;;6130228;23;20052;-58
2022/07/03 12:40:19;;;;;;;4.60;1.80;;;;;;;;;;6141682;23;20425;-58
2022/07/03 12:42:48;;;;;;;4.20;2.38;;;;;;;;;;6125955;23;20014;-58
2022/07/03 12:45:15;;;;;;;3.58;1.60;;;;;;;;;;6143788;23;20101;-58
2022/07/03 12:47:42;;;;;;;3.38;1.60;;;;;;;;;;6119470;23;20029;-59
2022/07/03 12:50:09;;;;;;;3.17;1.80;;;;;;;;;;6142332;23;20025;-58
2022/07/03 12:52:50;;;;;;;4.63;1.63;;;;;;;;;;6118532;23;20552;-59
2022/07/03 12:55:23;;;;;;;4.28;1.65;;;;;;;;;;6100940;23;20040;-59
2022/07/03 13:00:43;;;;;;;4.15;2.40;;;;;;;;;;6122544;23;20029;-62
2022/07/03 13:03:26;;;;;;;4.65;3.03;;;;;;;;;;6142310;23;20049;-58
2022/07/03 13:05:53;;;;;;;8.13;3.85;;;;;;;;;;6124902;23;20215;-59
2022/07/03 13:08:19;;;;;;;4.47;2.88;;;;;;;;;;6141814;23;20084;-58
2022/07/03 13:10:54;;;;;;;6.30;3.40;;;;;;;;;;6126965;23;20518;-58
2022/07/03 13:13:22;;;;;;;6.93;3.95;;;;;;;;;;6135028;23;20033;-59
2022/07/03 13:15:49;;;;;;;7.90;3.30;;;;;;;;;;6132552;23;20446;-58
2022/07/03 13:18:16;;;;;;;7.28;4.03;;;;;;;;;;6126516;23;20044;-58
2022/07/03 13:20:42;;;;;;;6.72;4.30;;;;;;;;;;6137266;23;20022;-58
2022/07/03 13:23:09;;;;;;;9.07;4.95;;;;;;;;;;6128634;23;20028;-57
2022/07/03 13:25:38;;;;;;;10.98;4.57;;;;;;;;;;6137124;23;20013;-58
2022/07/03 13:28:06;;;;;;;5.32;3.95;;;;;;;;;;6126630;23;20529;-59
2022/07/03 13:30:34;;;;;;;8.43;4.13;;;;;;;;;;6136199;23;20018;-57
2022/07/03 13:33:00;;;;;;;9.10;4.05;;;;;;;;;;6125585;23;20025;-58
2022/07/03 13:35:27;;;;;;;7.82;4.03;;;;;;;;;;6139861;23;20458;-56
2022/07/03 13:37:53;;;;;;;9.82;4.00;;;;;;;;;;6128284;23;20020;-57
2022/07/03 13:40:20;;;;;;;8.93;4.13;;;;;;;;;;6136799;23;20049;-57
2022/07/03 13:42:46;;;;;;;8.43;4.20;;;;;;;;;;6118737;23;20018;-57
2022/07/03 13:45:13;;;;;;;6.63;4.10;;;;;;;;;;6131659;23;20013;-57
2022/07/03 13:47:41;;;;;;;7.97;3.88;;;;;;;;;;6126621;23;20017;-58
2022/07/03 13:50:08;;;;;;;5.13;3.60;;;;;;;;;;6140036;23;20520;-57
2022/07/03 13:52:35;;;;;;;8.82;2.97;;;;;;;;;;6103191;23;20029;-57
2022/07/03 13:55:01;;;;;;;5.97;2.58;;;;;;;;;;6138529;23;20021;-58
2022/07/03 13:57:28;;;;;;;3.60;2.50;;;;;;;;;;6089578;23;20052;-58
2022/07/03 13:59:55;;;;;;;5.20;2.80;;;;;;;;;;6135373;23;20041;-56
2022/07/03 14:02:21;;;;;;;3.60;2.00;;;;;;;;;;6127025;23;20872;-58
2022/07/03 14:04:49;;;;;;;3.53;2.13;;;;;;;;;;6136571;23;20037;-57
2022/07/03 14:07:16;;;;;;;5.15;1.95;;;;;;;;;;6121984;23;20021;-57
2022/07/03 14:09:42;;;;;;;2.72;1.45;;;;;;;;;;6135540;23;20068;-58
2022/07/03 14:12:09;;;;;;;3.28;1.50;;;;;;;;;;6125852;23;20025;-57
2022/07/03 14:14:36;;;;;;;2.97;1.70;;;;;;;;;;6139084;23;20900;-57
2022/07/03 14:17:02;;;;;;;3.58;1.73;;;;;;;;;;6131874;23;20017;-57
2022/07/03 14:19:29;;;;;;;2.33;1.25;;;;;;;;;;6128539;23;20152;-58
2022/07/03 14:22:00;;;;;;;1.63;1.05;;;;;;;;;;6135169;23;20018;-57
2022/07/03 14:24:26;;;;;;;1.80;1.33;;;;;;;;;;6134472;23;20037;-57
2022/07/03 14:32:31;;;;;;;4.80;1.60;;;;;;;;;;6129837;23;20550;-58
2022/07/03 14:34:58;;;;;;;4.65;0.90;;;;;;;;;;6131240;23;20394;-57
2022/07/03 14:37:26;;;;;;;2.17;1.00;;;;;;;;;;6134408;23;20017;-58
2022/07/03 14:39:52;;;;;;;3.13;0.90;;;;;;;;;;6110577;23;20025;-58
2022/07/03 14:42:19;;;;;;;2.25;1.00;;;;;;;;;;6135109;23;20017;-56
2022/07/03 14:44:45;;;;;;;1.85;1.02;;;;;;;;;;6133581;23;20049;-56
2022/07/03 14:47:12;;;;;;;2.38;0.85;;;;;;;;;;6105281;23;20463;-57
2022/07/03 14:49:38;;;;;;;2.60;0.77;;;;;;;;;;6131000;23;20028;-58
2022/07/03 14:52:07;;;;;;;2.63;0.93;;;;;;;;;;6090713;23;20385;-58
2022/07/03 14:54:35;;;;;;;1.30;0.85;;;;;;;;;;6127605;23;20017;-57
2022/07/03 14:57:02;;;;;;;4.47;0.70;;;;;;;;;;6100433;23;20014;-58
2022/07/03 14:59:34;;;;;;;2.28;1.27;;;;;;;;;;6129466;23;20328;-58
2022/07/03 15:02:01;;;;;;;1.35;0.50;;;;;;;;;;6135354;23;20093;-58
2022/07/03 15:04:36;;;;;;;3.47;1.13;;;;;;;;;;6142347;23;20017;-58
2022/07/03 15:07:03;;;;;;;1.67;0.63;;;;;;;;;;6126916;23;20021;-57
2022/07/03 15:09:33;;;;;;;1.15;0.90;;;;;;;;;;6130619;23;20022;-58